Time;durP1;ratioP1;P1;durP2;ratioP2;P2;SDS_P1;SDS_P2;PMS_P1;PMS_P2;Temp;Humidity;BMP_temperature;BMP_pressure;BME280_temperature;BME280_humidity;BME280_pressure;Samples;Min_cycle;Max_cycle;Signal;HPM_P1;HPM_P2
2022/04/02 00:00:44;;;;;;;0.10;0.10;;;;;;;14.88;72.74;97345.56;6277539;22;20448;-75
2022/04/02 00:03:10;;;;;;;0.10;0.10;;;;;;;14.88;72.97;97343.63;6305294;22;20056;-76
2022/04/02 00:05:35;;;;;;;0.22;0.22;;;;;;;14.91;72.48;97336.00;6277486;22;20010;-76
2022/04/02 00:08:01;;;;;;;0.00;0.00;;;;;;;14.86;72.77;97337.03;6305276;22;20065;-75
2022/04/02 00:10:26;;;;;;;0.10;0.10;;;;;;;14.85;73.01;97359.69;6304952;22;20068;-76
2022/04/02 00:12:54;;;;;;;0.00;0.00;;;;;;;14.81;73.08;97356.91;6305093;22;20060;-76
2022/04/02 00:15:20;;;;;;;0.00;0.00;;;;;;;14.88;73.02;97354.41;6305161;22;20019;-76
2022/04/02 00:17:45;;;;;;;0.00;0.00;;;;;;;14.85;73.08;97360.47;6304510;22;20014;-75
2022/04/02 00:20:11;;;;;;;1.70;1.60;;;;;;;14.83;73.23;97359.25;6304820;22;20003;-76
2022/04/02 00:22:36;;;;;;;0.00;0.00;;;;;;;14.80;73.19;97352.66;6304850;22;20446;-76
2022/04/02 00:25:02;;;;;;;0.00;0.00;;;;;;;14.81;73.18;97342.69;6304666;22;20015;-76
2022/04/02 00:27:28;;;;;;;0.00;0.00;;;;;;;14.77;73.50;97347.19;6304821;22;20382;-76
2022/04/02 00:29:53;;;;;;;0.10;0.10;;;;;;;14.76;73.28;97343.72;6305415;22;20003;-76
2022/04/02 00:32:19;;;;;;;0.03;0.03;;;;;;;14.75;73.13;97333.31;6305012;22;20349;-76
2022/04/02 00:34:44;;;;;;;0.10;0.10;;;;;;;14.69;73.38;97330.84;6304776;22;20014;-76
2022/04/02 00:37:10;;;;;;;0.00;0.00;;;;;;;14.68;73.46;97329.31;6304598;22;19999;-76
2022/04/02 00:39:35;;;;;;;0.38;0.38;;;;;;;14.71;73.33;97331.28;6304580;22;20007;-76
2022/04/02 00:42:01;;;;;;;0.57;0.55;;;;;;;14.67;73.45;97343.88;6304993;22;20073;-76
2022/04/02 00:44:26;;;;;;;0.20;0.20;;;;;;;14.71;73.30;97338.59;6277215;22;20000;-76
2022/04/02 00:46:52;;;;;;;0.50;0.50;;;;;;;14.79;72.52;97328.78;6304981;22;20006;-75
2022/04/02 00:49:18;;;;;;;0.10;0.10;;;;;;;14.82;72.50;97326.19;6304925;22;20007;-76
2022/04/02 00:51:45;;;;;;;0.08;0.08;;;;;;;14.76;72.85;97340.22;6304666;22;20011;-75
2022/04/02 00:54:16;;;;;;;0.30;0.30;;;;;;;14.69;72.86;97330.84;6304926;22;20082;-76
2022/04/02 00:56:42;;;;;;;1.17;1.08;;;;;;;14.68;72.84;97333.88;6304215;22;20444;-75
2022/04/02 00:59:08;;;;;;;0.28;0.28;;;;;;;14.65;72.99;97329.19;6305155;22;20440;-76
2022/04/02 01:01:35;;;;;;;0.55;0.55;;;;;;;14.59;73.22;97323.25;6304619;22;20007;-75
2022/04/02 01:04:01;;;;;;;0.45;0.45;;;;;;;14.52;73.70;97320.38;6304484;22;20007;-75
2022/04/02 01:06:27;;;;;;;0.80;0.80;;;;;;;14.50;73.50;97325.31;6304581;22;19999;-75
2022/04/02 01:08:53;;;;;;;0.20;0.20;;;;;;;14.50;73.68;97312.66;6304857;22;20010;-76
2022/04/02 01:11:18;;;;;;;0.00;0.00;;;;;;;14.48;73.74;97314.91;6304704;22;20075;-75
2022/04/02 01:13:44;;;;;;;0.10;0.10;;;;;;;14.51;73.62;97310.75;6304533;22;20006;-75
2022/04/02 01:16:09;;;;;;;0.10;0.10;;;;;;;14.46;73.59;97297.56;6277405;22;19999;-75
2022/04/02 01:18:35;;;;;;;0.00;0.00;;;;;;;14.43;73.39;97304.41;6304481;22;20014;-75
2022/04/02 01:21:00;;;;;;;0.17;0.15;;;;;;;14.40;73.69;97299.69;6304445;22;20417;-75
2022/04/02 01:23:29;;;;;;;0.00;0.00;;;;;;;14.35;73.50;97294.59;6304489;22;20058;-75
2022/04/02 01:25:59;;;;;;;0.08;0.08;;;;;;;14.30;73.44;97290.22;6304863;22;20011;-75
2022/04/02 01:28:26;;;;;;;0.00;0.00;;;;;;;14.33;73.44;97297.63;6304492;22;20003;-75
2022/04/02 01:30:52;;;;;;;0.20;0.20;;;;;;;14.28;73.21;97287.13;6304726;22;20456;-75
2022/04/02 01:33:17;;;;;;;0.05;0.05;;;;;;;14.32;73.07;97290.69;6304649;22;19999;-75
2022/04/02 01:35:43;;;;;;;0.45;0.40;;;;;;;14.39;72.74;97284.69;6304396;22;20004;-75
2022/04/02 01:38:08;;;;;;;0.10;0.10;;;;;;;14.33;72.74;97280.69;6304623;22;20078;-76
2022/04/02 01:40:34;;;;;;;1.30;1.20;;;;;;;14.32;72.50;97292.56;6304356;22;20010;-76
2022/04/02 01:42:59;;;;;;;0.38;0.38;;;;;;;14.23;72.52;97290.03;6304638;22;20061;-76
2022/04/02 01:45:25;;;;;;;0.43;0.43;;;;;;;14.13;72.50;97274.41;6304401;22;20004;-76
2022/04/02 01:47:51;;;;;;;0.15;0.15;;;;;;;14.12;72.82;97276.28;6304689;22;20007;-75
2022/04/02 01:50:17;;;;;;;0.15;0.15;;;;;;;14.10;72.68;97283.94;6306138;22;19999;-75
2022/04/02 01:52:43;;;;;;;0.00;0.00;;;;;;;14.07;72.73;97287.31;6306293;22;20000;-75
2022/04/02 01:55:09;;;;;;;0.28;0.28;;;;;;;14.12;72.57;97297.03;6306561;22;20003;-75
2022/04/02 01:57:35;;;;;;;0.13;0.13;;;;;;;14.15;72.32;97297.13;6305847;22;20349;-76
2022/04/02 02:00:02;;;;;;;0.10;0.10;;;;;;;14.14;72.20;97290.19;6306037;22;20003;-76
2022/04/02 02:02:28;;;;;;;0.00;0.00;;;;;;;14.16;72.17;97290.63;6306167;22;20490;-76
2022/04/02 02:04:53;;;;;;;0.40;0.40;;;;;;;14.17;72.07;97302.16;6306416;22;20003;-75
2022/04/02 02:07:19;;;;;;;0.47;0.47;;;;;;;14.17;71.84;97311.03;6306402;22;20007;-76
2022/04/02 02:09:44;;;;;;;0.20;0.20;;;;;;;14.16;71.83;97312.13;6306165;22;20003;-75
2022/04/02 02:12:10;;;;;;;0.43;0.43;;;;;;;14.18;71.72;97323.31;6305926;22;20074;-76
2022/04/02 02:14:35;;;;;;;0.10;0.10;;;;;;;14.20;71.43;97325.69;6306105;22;20096;-75
2022/04/02 02:17:01;;;;;;;0.00;0.00;;;;;;;14.22;71.30;97334.97;6306295;22;20136;-76
2022/04/02 02:19:26;;;;;;;0.00;0.00;;;;;;;14.24;70.83;97345.38;6278593;22;20014;-76
2022/04/02 02:21:52;;;;;;;0.20;0.20;;;;;;;14.21;70.42;97356.81;6306266;22;20387;-75
2022/04/02 02:24:18;;;;;;;0.03;0.03;;;;;;;14.30;70.24;97357.44;6305918;22;20004;-76
2022/04/02 02:26:44;;;;;;;0.00;0.00;;;;;;;14.35;69.88;97361.81;6305999;22;20010;-76
2022/04/02 02:29:09;;;;;;;0.00;0.00;;;;;;;14.33;69.72;97350.59;6306221;22;20349;-76
2022/04/02 02:31:35;;;;;;;0.00;0.00;;;;;;;14.32;69.29;97352.53;6305663;22;20011;-75
2022/04/02 02:36:45;;;;;;;0.00;0.00;;;;;;;14.33;68.48;97350.59;6305546;22;20014;-75
2022/04/02 02:39:11;;;;;;;8.40;1.30;;;;;;;14.31;67.84;97350.94;6278720;22;19999;-75
2022/04/02 02:41:36;;;;;;;0.03;0.03;;;;;;;14.29;67.25;97347.81;6305857;22;20444;-75
2022/04/02 02:44:02;;;;;;;0.00;0.00;;;;;;;14.30;66.48;97338.63;6306126;22;20074;-75
2022/04/02 02:46:28;;;;;;;0.00;0.00;;;;;;;14.31;66.16;97342.13;6305677;22;20007;-76
2022/04/02 02:48:53;;;;;;;0.17;0.17;;;;;;;14.26;66.26;97351.19;6306021;22;20007;-75
2022/04/02 02:51:19;;;;;;;0.00;0.00;;;;;;;14.29;66.10;97355.88;6306032;22;19999;-75
2022/04/02 02:53:44;;;;;;;1.35;1.25;;;;;;;14.23;65.99;97355.34;6305757;22;20589;-75
2022/04/02 02:56:11;;;;;;;0.00;0.00;;;;;;;14.25;65.52;97365.75;6305943;22;20034;-75
2022/04/02 02:58:36;;;;;;;0.50;0.43;;;;;;;14.22;65.50;97364.53;6305567;22;19999;-75
2022/04/02 03:01:02;;;;;;;0.00;0.00;;;;;;;14.25;65.23;97377.28;6278482;22;20011;-76
2022/04/02 03:03:27;;;;;;;0.00;0.00;;;;;;;14.28;65.15;97385.81;6305589;22;20003;-76
2022/04/02 03:05:53;;;;;;;0.38;0.38;;;;;;;14.30;64.94;97397.78;6305867;22;20429;-76
2022/04/02 03:08:19;;;;;;;0.00;0.00;;;;;;;14.28;65.03;97396.56;6305836;22;20010;-75
2022/04/02 03:10:45;;;;;;;0.00;0.00;;;;;;;14.22;64.96;97391.44;6305571;22;20026;-75
2022/04/02 03:13:11;;;;;;;0.00;0.00;;;;;;;14.22;65.05;97396.81;6305692;22;20034;-75
2022/04/02 03:15:36;;;;;;;0.38;0.38;;;;;;;14.23;64.83;97401.06;6305068;22;20407;-76
2022/04/02 03:18:07;;;;;;;0.00;0.00;;;;;;;14.20;64.63;97406.34;6305650;22;20003;-76
2022/04/02 03:20:33;;;;;;;0.57;0.57;;;;;;;14.19;64.64;97400.16;6305095;22;20003;-75
2022/04/02 03:22:59;;;;;;;0.35;0.35;;;;;;;14.14;64.78;97402.31;6305684;22;20328;-76
2022/04/02 03:25:24;;;;;;;0.00;0.00;;;;;;;14.08;64.85;97399.84;6305422;22;20011;-76
2022/04/02 03:27:50;;;;;;;0.10;0.10;;;;;;;14.11;64.76;97401.09;6305667;22;20009;-76
2022/04/02 03:30:18;;;;;;;0.00;0.00;;;;;;;14.08;64.81;97399.06;6305620;22;20014;-76
2022/04/02 03:32:44;;;;;;;0.00;0.00;;;;;;;14.11;64.58;97403.00;6305343;22;20361;-75
2022/04/02 03:35:14;;;;;;;0.00;0.00;;;;;;;14.07;64.47;97410.94;6278144;22;20399;-76
2022/04/02 03:37:41;;;;;;;0.20;0.20;;;;;;;14.11;64.27;97422.59;6305104;22;20065;-75
2022/04/02 03:40:14;;;;;;;0.00;0.00;;;;;;;14.14;63.78;97434.56;6305477;22;20003;-76
2022/04/02 03:42:41;;;;;;;0.00;0.00;;;;;;;14.16;63.82;97429.63;6304892;22;20072;-76
2022/04/02 03:45:09;;;;;;;0.10;0.10;;;;;;;14.13;63.54;97439.16;6305433;22;20003;-76
2022/04/02 03:47:34;;;;;;;0.13;0.13;;;;;;;14.16;63.27;97449.25;6304895;22;20070;-76
2022/04/02 03:50:00;;;;;;;0.10;0.10;;;;;;;14.16;62.96;97451.13;6305340;22;20007;-75
2022/04/02 03:52:26;;;;;;;0.20;0.20;;;;;;;14.10;62.48;97447.91;6304772;22;20038;-76
2022/04/02 03:54:51;;;;;;;0.10;0.10;;;;;;;14.05;62.24;97458.91;6305364;22;19999;-76
2022/04/02 03:57:17;;;;;;;0.10;0.10;;;;;;;14.08;61.88;97467.03;6277865;22;20011;-76
2022/04/02 03:59:44;;;;;;;0.00;0.00;;;;;;;14.03;61.78;97469.19;6304922;22;20086;-75
2022/04/02 04:02:10;;;;;;;0.00;0.00;;;;;;;14.01;61.58;97468.75;6305265;22;20010;-76
2022/04/02 04:04:36;;;;;;;0.00;0.00;;;;;;;14.01;61.77;97485.66;6304924;22;20074;-75
2022/04/02 04:07:02;;;;;;;0.00;0.00;;;;;;;13.99;61.98;97482.53;6305292;22;20030;-75
2022/04/02 04:09:28;;;;;;;0.00;0.00;;;;;;;14.10;62.12;97488.22;6304893;22;20003;-75
2022/04/02 04:11:54;;;;;;;0.00;0.00;;;;;;;14.16;62.57;97489.56;6304878;22;20026;-75
2022/04/02 04:14:20;;;;;;;0.10;0.10;;;;;;;14.22;62.56;97476.66;6305216;22;20003;-75
2022/04/02 04:16:47;;;;;;;1.35;0.77;;;;;;;14.21;62.51;97477.81;6304897;22;20014;-75
2022/04/02 04:19:12;;;;;;;0.10;0.10;;;;;;;14.24;62.59;97480.59;6305086;22;20045;-75
2022/04/02 04:21:38;;;;;;;1.73;0.73;;;;;;;14.34;62.79;97471.28;6304433;22;20014;-75
2022/04/02 04:24:04;;;;;;;0.10;0.10;;;;;;;14.54;62.08;97490.28;6277542;22;20007;-76
2022/04/02 04:26:30;;;;;;;0.00;0.00;;;;;;;14.77;61.56;97493.28;6304822;22;20003;-75
2022/04/02 04:28:55;;;;;;;0.00;0.00;;;;;;;14.98;60.97;97492.31;6304650;22;20455;-75
2022/04/02 04:31:22;;;;;;;0.15;0.15;;;;;;;15.29;59.97;97496.97;6305387;22;20025;-75
2022/04/02 04:33:48;;;;;;;0.10;0.10;;;;;;;15.84;58.82;97509.91;6304507;22;20007;-75
2022/04/02 04:36:22;;;;;;;0.00;0.00;;;;;;;16.01;58.10;97522.25;6304665;22;20003;-75
2022/04/02 04:38:48;;;;;;;0.00;0.00;;;;;;;16.30;56.81;97518.28;6304605;22;20009;-77
2022/04/02 04:41:13;;;;;;;0.30;0.30;;;;;;;16.55;55.76;97517.28;6304889;22;20027;-75
2022/04/02 04:43:41;;;;;;;0.10;0.10;;;;;;;16.83;55.02;97525.19;6304658;22;20333;-76
2022/04/02 04:46:08;;;;;;;0.25;0.25;;;;;;;17.07;53.94;97521.44;6305059;22;19999;-75
2022/04/02 04:48:35;;;;;;;0.05;0.05;;;;;;;17.35;53.01;97536.63;6304347;22;20428;-76
2022/04/02 04:51:02;;;;;;;0.10;0.10;;;;;;;17.64;52.00;97541.78;6277421;22;20019;-76
2022/04/02 04:53:27;;;;;;;0.30;0.30;;;;;;;17.98;51.03;97550.09;6304226;22;20000;-76
2022/04/02 04:55:53;;;;;;;0.00;0.00;;;;;;;18.24;50.47;97550.13;6304508;22;20083;-77
2022/04/02 04:58:19;;;;;;;0.10;0.10;;;;;;;18.60;49.49;97557.97;6304347;22;20426;-76
2022/04/02 05:00:44;;;;;;;0.00;0.00;;;;;;;18.92;48.63;97551.44;6304624;22;20023;-75
2022/04/02 05:03:10;;;;;;;0.10;0.10;;;;;;;19.22;47.69;97550.66;6304796;22;20007;-75
2022/04/02 05:05:37;;;;;;;0.10;0.10;;;;;;;19.58;47.08;97540.97;6304177;22;20086;-75
2022/04/02 05:08:03;;;;;;;0.00;0.00;;;;;;;19.87;46.03;97535.03;6304847;22;20031;-75
2022/04/02 05:10:29;;;;;;;1.00;1.00;;;;;;;20.21;45.17;97541.09;6304496;22;20068;-75
2022/04/02 05:12:54;;;;;;;0.15;0.15;;;;;;;20.58;44.06;97564.63;6304658;22;20121;-77
2022/04/02 05:15:20;;;;;;;0.10;0.10;;;;;;;20.87;43.18;97564.03;6277285;22;20023;-76
2022/04/02 05:17:46;;;;;;;0.00;0.00;;;;;;;21.18;42.59;97569.97;6276638;22;20003;-75
2022/04/02 05:20:14;;;;;;;1.02;1.00;;;;;;;21.46;41.38;97582.13;6304719;22;20007;-75
2022/04/02 05:22:42;;;;;;;0.40;0.40;;;;;;;21.80;41.42;97573.66;6304494;22;20086;-74
2022/04/02 05:25:08;;;;;;;0.45;0.45;;;;;;;22.04;40.20;97577.56;6306155;22;20152;-75
2022/04/02 05:27:34;;;;;;;0.00;0.00;;;;;;;22.34;39.15;97582.63;6278980;22;20027;-75
2022/04/02 05:30:02;;;;;;;0.00;0.00;;;;;;;22.65;37.97;97588.44;6306736;22;20078;-75
2022/04/02 05:32:28;;;;;;;0.00;0.00;;;;;;;22.94;37.16;97590.31;6306467;22;20014;-74
2022/04/02 05:34:54;;;;;;;0.00;0.00;;;;;;;23.21;36.15;97598.81;6306607;22;20007;-76
2022/04/02 05:37:21;;;;;;;0.00;0.00;;;;;;;23.38;35.34;97610.81;6306706;22;20007;-76
2022/04/02 05:39:46;;;;;;;0.00;0.00;;;;;;;23.55;35.12;97601.00;6306243;22;20344;-74
2022/04/02 05:42:12;;;;;;;0.00;0.00;;;;;;;23.64;34.97;97589.63;6306692;22;20444;-74
2022/04/02 05:44:39;;;;;;;0.00;0.00;;;;;;;23.84;34.56;97595.38;6305787;22;20029;-76
2022/04/02 05:47:05;;;;;;;0.00;0.00;;;;;;;23.92;34.73;97602.34;6279277;22;20591;-75
2022/04/02 05:49:31;;;;;;;0.00;0.00;;;;;;;23.97;33.85;97599.19;6306302;22;20464;-76
2022/04/02 05:51:57;;;;;;;0.00;0.00;;;;;;;23.90;33.90;97598.44;6306426;22;20080;-75
2022/04/02 05:54:23;;;;;;;0.05;0.05;;;;;;;23.90;33.60;97599.22;6306105;22;20014;-75
2022/04/02 05:56:49;;;;;;;0.00;0.00;;;;;;;23.86;33.88;97594.97;6306266;22;20003;-75
2022/04/02 05:59:15;;;;;;;0.00;0.00;;;;;;;23.81;33.76;97591.50;6305920;22;19999;-75
2022/04/02 06:01:40;;;;;;;0.00;0.00;;;;;;;23.81;34.12;97590.69;6306148;22;19999;-75
2022/04/02 06:04:06;;;;;;;0.00;0.00;;;;;;;23.78;33.99;97591.50;6306033;22;20010;-75
2022/04/02 06:06:31;;;;;;;0.00;0.00;;;;;;;23.72;34.21;97601.31;6305751;22;20376;-75
2022/04/02 06:08:57;;;;;;;0.00;0.00;;;;;;;23.67;34.05;97616.13;6306373;22;20010;-75
2022/04/02 06:11:24;;;;;;;0.00;0.00;;;;;;;23.59;33.88;97623.56;6305960;22;20441;-75
2022/04/02 06:13:49;;;;;;;0.00;0.00;;;;;;;23.50;33.55;97612.31;6278958;22;20003;-75
2022/04/02 06:16:16;;;;;;;0.00;0.00;;;;;;;23.44;33.38;97616.66;6305948;22;20468;-75
2022/04/02 06:18:42;;;;;;;0.20;0.10;;;;;;;23.43;32.42;97631.47;6305864;22;20004;-75
2022/04/02 06:21:08;;;;;;;0.00;0.00;;;;;;;23.28;31.74;97623.34;6278920;22;20007;-75
2022/04/02 06:23:33;;;;;;;0.00;0.00;;;;;;;23.17;31.49;97625.34;6305582;22;20003;-75
2022/04/02 06:25:59;;;;;;;0.00;0.00;;;;;;;23.01;31.39;97631.19;6306218;22;20087;-76
2022/04/02 06:28:25;;;;;;;0.00;0.00;;;;;;;22.80;31.44;97610.19;6305548;22;20006;-76
2022/04/02 06:30:50;;;;;;;0.00;0.00;;;;;;;22.62;31.80;97600.13;6305730;22;20398;-76
2022/04/02 06:33:16;;;;;;;0.00;0.00;;;;;;;22.57;31.91;97586.13;6305801;22;20068;-76
2022/04/02 06:35:42;;;;;;;0.00;0.00;;;;;;;22.52;32.54;97603.63;6305713;22;20084;-76
2022/04/02 06:38:07;;;;;;;0.00;0.00;;;;;;;22.48;32.97;97605.59;6305963;22;20416;-76
2022/04/02 06:40:33;;;;;;;0.17;0.17;;;;;;;22.43;32.67;97612.19;6305907;22;20068;-76
2022/04/02 06:42:59;;;;;;;0.00;0.00;;;;;;;22.43;33.22;97612.19;6306043;22;20344;-76
2022/04/02 06:45:27;;;;;;;0.00;0.00;;;;;;;22.47;32.91;97615.72;6306205;22;20003;-76
2022/04/02 06:47:53;;;;;;;0.00;0.00;;;;;;;22.43;32.79;97609.47;6306069;22;20007;-76
2022/04/02 06:50:18;;;;;;;0.08;0.08;;;;;;;22.45;32.69;97612.59;6278608;22;20425;-76
2022/04/02 06:52:45;;;;;;;0.00;0.00;;;;;;;22.44;32.54;97600.16;6305731;22;20003;-76
2022/04/02 06:55:12;;;;;;;0.00;0.00;;;;;;;22.42;32.75;97588.09;6305905;22;20003;-76
2022/04/02 06:57:48;;;;;;;0.10;0.10;;;;;;;22.35;31.86;97595.06;6305515;22;20006;-76
2022/04/02 07:00:15;;;;;;;0.10;0.10;;;;;;;22.29;31.96;97595.84;6305948;22;20428;-76
2022/04/02 07:02:40;;;;;;;0.13;0.13;;;;;;;22.26;31.49;97600.13;6305590;22;19999;-76
2022/04/02 07:05:06;;;;;;;0.05;0.05;;;;;;;22.20;31.32;97601.69;6305878;22;20078;-76
2022/04/02 07:07:32;;;;;;;0.00;0.00;;;;;;;22.18;31.40;97598.56;6305507;22;19999;-76
2022/04/02 07:09:58;;;;;;;0.00;0.00;;;;;;;22.11;31.52;97609.47;6305821;22;19999;-75
2022/04/02 07:12:23;;;;;;;0.20;0.20;;;;;;;22.08;31.31;97600.13;6305793;22;20003;-75
2022/04/02 07:14:49;;;;;;;0.10;0.10;;;;;;;22.09;31.20;97609.84;6278011;22;20007;-76
2022/04/02 07:17:14;;;;;;;0.15;0.15;;;;;;;22.09;31.70;97612.56;6305739;22;19999;-75
2022/04/02 07:19:41;;;;;;;0.05;0.05;;;;;;;22.15;31.73;97608.28;6305247;22;20003;-75
2022/04/02 07:22:08;;;;;;;0.10;0.10;;;;;;;22.05;31.55;97604.41;6305500;22;20007;-75
2022/04/02 07:24:34;;;;;;;0.08;0.08;;;;;;;21.95;31.52;97607.09;6305244;22;20016;-75
2022/04/02 07:27:02;;;;;;;0.43;0.20;;;;;;;21.86;31.30;97604.75;6305725;22;20003;-76
2022/04/02 07:29:31;;;;;;;0.10;0.10;;;;;;;21.75;31.07;97615.63;6305492;22;20007;-74
2022/04/02 07:31:56;;;;;;;0.10;0.10;;;;;;;21.71;31.28;97620.28;6305612;22;20003;-76
2022/04/02 07:34:22;;;;;;;0.28;0.28;;;;;;;21.65;31.77;97608.22;6305469;22;20010;-75
2022/04/02 07:37:04;;;;;;;0.10;0.10;;;;;;;21.62;31.16;97615.22;6305263;22;20360;-76
2022/04/02 07:39:47;;;;;;;0.10;0.10;;;;;;;21.57;31.29;97624.53;6305092;22;20060;-75
2022/04/02 07:42:23;;;;;;;0.10;0.10;;;;;;;21.63;31.45;97616.78;6305529;22;20010;-76
2022/04/02 07:45:03;;;;;;;0.10;0.10;;;;;;;21.69;31.71;97609.81;6304753;22;20559;-76
2022/04/02 07:47:31;;;;;;;0.10;0.10;;;;;;;21.59;32.08;97603.19;6304811;22;20090;-75
2022/04/02 07:50:13;;;;;;;0.10;0.10;;;;;;;21.71;31.91;97606.69;6305475;22;20404;-75
2022/04/02 07:52:44;;;;;;;0.10;0.10;;;;;;;21.72;31.41;97605.53;6304476;22;19999;-76
2022/04/02 07:55:10;;;;;;;0.00;0.00;;;;;;;21.73;31.12;97604.38;6305015;22;19999;-76
2022/04/02 07:57:41;;;;;;;0.08;0.08;;;;;;;21.77;31.51;97609.81;6304717;22;20360;-76
2022/04/02 08:00:10;;;;;;;0.00;0.00;;;;;;;21.78;31.30;97611.38;6305307;22;20006;-76
2022/04/02 08:02:37;;;;;;;0.10;0.10;;;;;;;21.83;31.28;97619.94;6305166;22;20011;-75
2022/04/02 08:05:05;;;;;;;0.27;0.27;;;;;;;21.83;30.90;97611.75;6305244;22;20017;-76
2022/04/02 08:07:31;;;;;;;;;;;;;;;21.85;30.62;97617.59;6305492;22;20467;-75
2022/04/02 08:09:58;;;;;;;0.00;0.00;;;;;;;21.84;30.75;97615.28;6305287;22;20482;-75
2022/04/02 08:12:26;;;;;;;0.00;0.00;;;;;;;21.81;30.41;97608.63;6304970;22;20011;-76
2022/04/02 08:14:53;;;;;;;;;;;;;;;21.84;30.49;97593.50;6305403;22;20009;-76
2022/04/02 08:17:20;;;;;;;0.00;0.00;;;;;;;21.76;30.81;97600.88;6305131;22;19903;-76
2022/04/02 08:19:49;;;;;;;0.00;0.00;;;;;;;21.75;30.63;97593.84;6304816;22;20007;-76
2022/04/02 08:22:16;;;;;;;;;;;;;;;21.73;30.53;97594.25;6305665;22;20063;-76
2022/04/02 08:24:42;;;;;;;0.30;0.30;;;;;;;21.69;30.23;97584.53;6304292;22;19911;-76
2022/04/02 08:27:33;;;;;;;0.10;0.10;;;;;;;21.68;30.49;97589.19;6304705;22;20019;-76
2022/04/02 08:30:08;;;;;;;0.00;0.00;;;;;;;21.63;30.75;97586.88;6277798;22;20011;-76
2022/04/02 08:33:10;;;;;;;0.00;0.00;;;;;;;21.64;30.96;97604.75;6304673;22;20062;-76
2022/04/02 08:36:02;;;;;;;0.10;0.10;;;;;;;;;;6304569;22;20437;-76
2022/04/02 08:39:08;;;;;;;0.10;0.10;;;;;;;21.64;30.02;97609.38;6297201;22;20397;-76
2022/04/02 08:42:08;;;;;;;0.00;0.00;;;;;;;21.72;29.28;97597.38;6256574;22;20010;-76
2022/04/02 08:44:46;;;;;;;0.00;0.00;;;;;;;21.66;28.78;97582.59;6304678;22;20425;-76
2022/04/02 08:47:20;;;;;;;0.10;0.10;;;;;;;21.72;28.88;97605.53;6304915;22;20417;-75
2022/04/02 08:50:12;;;;;;;0.55;0.40;;;;;;;21.68;28.24;97608.25;6277050;22;20011;-77
2022/04/02 08:52:56;;;;;;;0.30;0.30;;;;;;;21.69;28.38;97614.44;6304281;22;20398;-76
2022/04/02 08:55:32;;;;;;;0.00;0.00;;;;;;;21.77;28.22;97612.53;6304574;22;20436;-76
2022/04/02 08:58:22;;;;;;;0.00;0.00;;;;;;;21.82;27.47;97602.03;6304646;22;20007;-77
2022/04/02 09:01:09;;;;;;;0.10;0.10;;;;;;;21.95;27.65;97594.28;6304617;22;19999;-77
2022/04/02 09:04:08;;;;;;;0.00;0.00;;;;;;;22.15;27.13;97569.41;6277293;22;20014;-75
2022/04/02 09:06:46;;;;;;;0.20;0.20;;;;;;;22.30;26.62;97564.72;6304498;22;20060;-75
2022/04/02 09:09:32;;;;;;;0.10;0.10;;;;;;;22.46;26.08;97556.97;6304712;22;20007;-75
2022/04/02 09:12:23;;;;;;;0.10;0.10;;;;;;;22.60;25.95;97585.34;6304426;22;20003;-75
2022/04/02 09:15:07;;;;;;;0.00;0.00;;;;;;;22.74;25.56;97585.31;6304474;22;20007;-75
2022/04/02 09:17:43;;;;;;;0.10;0.10;;;;;;;22.83;25.26;97582.94;6304415;22;20497;-77
2022/04/02 09:20:30;;;;;;;0.00;0.00;;;;;;;22.96;25.33;97566.94;6304654;22;20010;-76
2022/04/02 09:23:38;;;;;;;0.00;0.00;;;;;;;23.01;26.27;97558.34;6277017;22;20011;-76
2022/04/02 09:26:18;;;;;;;;;;;;;;;23.03;26.59;97569.66;6277698;22;20015;-76
2022/04/02 09:28:48;;;;;;;0.00;0.00;;;;;;;23.02;26.48;97572.75;6304348;22;19918;-75
2022/04/02 09:31:38;;;;;;;0.00;0.00;;;;;;;23.07;27.50;97555.22;6304441;22;20520;-76
2022/04/02 09:34:51;;;;;;;0.00;0.00;;;;;;;23.09;27.20;97564.53;6304587;22;20445;-76
2022/04/02 09:37:53;;;;;;;0.57;0.57;;;;;;;23.08;26.49;97535.72;6168202;22;20073;-75
2022/04/02 09:40:29;;;;;;;0.20;0.20;;;;;;;23.05;26.56;97558.34;6304685;22;19999;-75
2022/04/02 09:43:03;;;;;;;0.10;0.10;;;;;;;23.04;27.44;97562.22;6304422;22;20476;-75
2022/04/02 09:45:46;;;;;;;0.00;0.00;;;;;;;23.04;28.25;97545.88;6304484;22;20007;-76
2022/04/02 09:48:24;;;;;;;0.10;0.10;;;;;;;23.00;28.32;97550.56;6304717;22;20007;-75
2022/04/02 09:50:55;;;;;;;0.38;0.38;;;;;;;22.93;28.28;97558.78;6304167;22;20003;-76
2022/04/02 09:53:25;;;;;;;0.10;0.10;;;;;;;22.93;28.54;97537.75;6304532;22;19999;-76
2022/04/02 09:56:23;;;;;;;0.00;0.00;;;;;;;22.87;28.75;97514.78;6276790;22;20007;-76
2022/04/02 09:59:14;;;;;;;;;;;;;;;22.83;29.71;97550.22;6304655;22;20504;-75
2022/04/02 10:01:57;;;;;;;0.00;0.00;;;;;;;22.79;29.87;97538.56;6304236;22;19907;-76
2022/04/02 10:04:35;;;;;;;0.00;0.00;;;;;;;22.77;29.29;97530.00;6304592;22;20088;-76
2022/04/02 10:07:03;;;;;;;0.03;0.03;;;;;;;22.64;28.70;97543.31;6304226;22;20022;-76
2022/04/02 10:09:35;;;;;;;0.10;0.10;;;;;;;22.66;29.27;97532.00;6304143;22;20006;-75
2022/04/02 10:12:05;;;;;;;0.00;0.00;;;;;;;22.60;29.89;97545.25;6278555;22;20037;-76
2022/04/02 10:14:34;;;;;;;0.05;0.05;;;;;;;22.49;30.58;97542.53;6306383;22;19999;-76
2022/04/02 10:17:04;;;;;;;0.00;0.00;;;;;;;22.49;31.08;97539.81;6305949;22;20078;-76
2022/04/02 10:19:38;;;;;;;0.10;0.10;;;;;;;22.46;31.04;97553.44;6306195;22;20007;-76
2022/04/02 10:22:12;;;;;;;0.05;0.05;;;;;;;22.44;31.12;97537.50;6306338;22;20003;-76
2022/04/02 10:24:47;;;;;;;0.00;0.00;;;;;;;22.43;30.88;97533.22;6306070;22;20144;-77
2022/04/02 10:27:21;;;;;;;0.00;0.00;;;;;;;22.40;31.26;97542.19;6306401;22;19999;-76
2022/04/02 10:29:57;;;;;;;0.00;0.00;;;;;;;22.38;31.07;97512.59;6278513;22;20035;-76
2022/04/02 10:32:50;;;;;;;0.00;0.00;;;;;;;22.33;30.96;97523.88;6306132;22;20003;-78
2022/04/02 10:35:16;;;;;;;0.05;0.05;;;;;;;22.28;31.28;97542.56;6306083;22;20077;-76
2022/04/02 10:38:08;;;;;;;0.10;0.10;;;;;;;22.19;31.29;97524.69;6305602;22;20362;-76
2022/04/02 10:40:48;;;;;;;0.10;0.10;;;;;;;22.19;31.68;97542.94;6306182;22;20482;-76
2022/04/02 10:43:44;;;;;;;0.03;0.03;;;;;;;22.19;31.45;97532.06;6306184;22;20000;-76
2022/04/02 10:46:09;;;;;;;0.10;0.10;;;;;;;22.19;31.87;97538.28;6278660;22;20418;-76
2022/04/02 10:48:46;;;;;;;0.10;0.10;;;;;;;22.24;31.51;97534.41;6306038;22;20038;-76
2022/04/02 10:51:13;;;;;;;0.10;0.10;;;;;;;22.21;31.47;97511.44;6305775;22;20056;-76
2022/04/02 10:53:43;;;;;;;0.00;0.00;;;;;;;22.20;31.53;97517.28;6305991;22;20304;-76
2022/04/02 10:56:16;;;;;;;0.10;0.10;;;;;;;22.18;31.92;97514.94;6305848;22;20022;-76
2022/04/02 10:58:46;;;;;;;0.10;0.10;;;;;;;22.19;31.61;97519.22;6305421;22;20034;-75
2022/04/02 11:01:12;;;;;;;0.10;0.10;;;;;;;22.20;31.52;97518.06;6305369;22;20010;-76
2022/04/02 11:03:39;;;;;;;0.10;0.10;;;;;;;22.22;31.70;97515.72;6305872;22;20010;-76
2022/04/02 11:06:06;;;;;;;0.00;0.00;;;;;;;22.25;31.50;97518.84;6305576;22;20003;-76
2022/04/02 11:08:32;;;;;;;0.10;0.10;;;;;;;22.27;31.57;97519.22;6277964;22;20007;-76
2022/04/02 11:10:59;;;;;;;0.20;0.10;;;;;;;22.25;31.10;97524.28;6305383;22;20392;-76
2022/04/02 11:13:34;;;;;;;0.00;0.00;;;;;;;22.23;31.43;97511.81;6305585;22;20395;-76
2022/04/02 11:16:00;;;;;;;0.10;0.10;;;;;;;22.21;31.91;97527.00;6277945;22;20396;-76
2022/04/02 11:18:26;;;;;;;0.03;0.03;;;;;;;22.22;31.83;97542.19;6305459;22;20026;-76
2022/04/02 11:21:03;;;;;;;0.00;0.00;;;;;;;22.17;32.04;97532.44;6305086;22;20007;-76
2022/04/02 11:23:59;;;;;;;0.10;0.10;;;;;;;22.10;31.73;97539.84;6305198;22;20065;-76
2022/04/02 11:26:28;;;;;;;0.03;0.03;;;;;;;22.06;31.81;97528.97;6305702;22;20011;-76
2022/04/02 11:28:55;;;;;;;;;;;;;;;22.11;31.96;97531.28;6305445;22;20082;-75
2022/04/02 11:31:27;;;;;;;0.10;0.10;;;;;;;22.08;31.60;97529.34;6305406;22;19907;-75
2022/04/02 11:33:53;;;;;;;0.43;0.43;;;;;;;22.07;31.73;97519.63;6305192;22;20004;-75
2022/04/02 11:36:36;;;;;;;0.10;0.10;;;;;;;22.02;31.92;97517.28;6305232;22;20338;-75
2022/04/02 11:39:03;;;;;;;0.20;0.20;;;;;;;21.93;31.85;97506.03;6305126;22;20003;-75
2022/04/02 11:41:40;;;;;;;0.10;0.10;;;;;;;21.88;31.60;97509.91;6305499;22;20511;-75
2022/04/02 11:44:17;;;;;;;0.00;0.00;;;;;;;21.89;31.98;97500.59;6305219;22;20010;-76
2022/04/02 11:46:54;;;;;;;0.00;0.00;;;;;;;21.85;32.12;97499.78;6305358;22;20034;-76
2022/04/02 11:49:36;;;;;;;0.25;0.25;;;;;;;21.84;31.67;97471.81;6305545;22;20031;-76
2022/04/02 11:52:04;;;;;;;0.20;0.20;;;;;;;21.72;31.72;97488.53;6277662;22;20064;-76